Time;durP1;ratioP1;P1;durP2;ratioP2;P2;SDS_P1;SDS_P2;PMS_P1;PMS_P2;Temp;Humidity;BMP_temperature;BMP_pressure;BME280_temperature;BME280_humidity;BME280_pressure;Samples;Min_cycle;Max_cycle;Signal;HPM_P1;HPM_P2
2022/04/23 00:00:31;;;;;;;18.73;12.30;;;16.10;45.30;;;;;;5056761;27;21115;-87
2022/04/23 00:03:01;;;;;;;19.97;12.77;;;16.10;45.30;;;;;;5064556;27;20443;-85
2022/04/23 00:05:30;;;;;;;19.73;13.03;;;16.20;45.30;;;;;;5073497;27;20442;-87
2022/04/23 00:07:58;;;;;;;19.40;12.10;;;16.20;45.20;;;;;;5109822;27;20450;-86
2022/04/23 00:10:27;;;;;;;19.20;12.70;;;16.20;45.20;;;;;;5075765;27;20438;-87
2022/04/23 00:12:55;;;;;;;18.90;12.63;;;16.20;45.40;;;;;;5083802;27;20882;-86
2022/04/23 00:15:25;;;;;;;20.13;12.67;;;16.30;45.10;;;;;;5093680;27;20746;-87
2022/04/23 00:17:55;;;;;;;17.37;12.30;;;16.30;45.10;;;;;;5092608;27;20500;-87
2022/04/23 00:20:29;;;;;;;18.80;13.03;;;16.30;45.10;;;;;;5083133;28;20466;-87
2022/04/23 00:22:59;;;;;;;18.73;12.23;;;16.30;45.40;;;;;;5102592;27;20441;-87
2022/04/23 00:25:27;;;;;;;22.20;14.17;;;16.30;45.20;;;;;;5084512;27;20442;-87
2022/04/23 00:27:57;;;;;;;15.60;11.73;;;16.30;45.00;;;;;;5076345;28;20499;-87
2022/04/23 00:30:26;;;;;;;17.40;11.43;;;16.30;44.90;;;;;;5087929;28;20453;-85
2022/04/23 00:32:58;;;;;;;20.33;12.13;;;16.40;45.00;;;;;;5083419;27;20446;-86
2022/04/23 00:35:28;;;;;;;16.50;11.30;;;16.40;45.30;;;;;;5078474;27;20981;-85
2022/04/23 00:37:56;;;;;;;17.57;12.03;;;16.30;44.70;;;;;;5090613;27;20447;-86
2022/04/23 00:40:25;;;;;;;14.13;11.10;;;16.30;44.70;;;;;;5075641;27;20462;-87
2022/04/23 00:42:56;;;;;;;16.10;11.50;;;16.30;45.00;;;;;;5094100;27;20454;-87
2022/04/23 00:45:28;;;;;;;18.60;11.83;;;16.20;44.50;;;;;;5085563;27;20915;-87
2022/04/23 00:47:58;;;;;;;17.10;11.40;;;16.20;44.40;;;;;;5080763;27;20549;-87
2022/04/23 00:50:28;;;;;;;14.77;11.23;;;16.10;44.60;;;;;;5077018;27;20439;-87
2022/04/23 00:53:02;;;;;;;19.67;11.77;;;16.10;44.90;;;;;;5085413;27;20886;-86
2022/04/23 00:55:33;;;;;;;14.40;11.10;;;16.00;44.60;;;;;;5092223;27;20447;-86
2022/04/23 00:58:02;;;;;;;19.57;11.50;;;15.90;44.80;;;;;;5059775;27;20491;-87
2022/04/23 01:00:31;;;;;;;18.40;11.80;;;15.70;44.60;;;;;;5075726;27;20464;-87
2022/04/23 01:03:01;;;;;;;17.80;11.30;;;15.60;44.80;;;;;;5075081;28;20441;-87
2022/04/23 01:05:30;;;;;;;16.27;11.80;;;15.50;45.10;;;;;;5083203;28;20438;-86
2022/04/23 01:08:02;;;;;;;18.77;11.83;;;15.50;45.50;;;;;;5088971;28;20451;-86
2022/04/23 01:10:31;;;;;;;16.30;11.43;;;15.50;45.60;;;;;;5081469;28;20430;-86
2022/04/23 01:12:59;;;;;;;18.33;11.50;;;15.60;46.00;;;;;;5067340;28;20558;-87
2022/04/23 01:15:29;;;;;;;16.77;12.07;;;15.60;45.90;;;;;;5074753;28;20439;-86
2022/04/23 01:17:57;;;;;;;16.20;11.57;;;15.60;46.50;;;;;;5059695;28;20454;-86
2022/04/23 01:20:28;;;;;;;19.97;12.07;;;15.60;46.60;;;;;;5093638;28;20996;-87
2022/04/23 01:22:57;;;;;;;15.60;11.87;;;15.60;46.70;;;;;;5090622;28;20450;-87
2022/04/23 01:25:28;;;;;;;17.60;12.73;;;15.60;46.80;;;;;;5091968;28;21037;-87
2022/04/23 01:27:57;;;;;;;15.30;11.50;;;15.60;47.20;;;;;;5077845;28;21000;-87
2022/04/23 01:30:27;;;;;;;15.47;10.40;;;15.60;46.90;;;;;;5074069;28;20480;-87
2022/04/23 01:32:56;;;;;;;20.63;12.57;;;15.70;47.60;;;;;;5075265;28;20442;-87
2022/04/23 01:35:25;;;;;;;17.67;12.07;;;15.70;47.10;;;;;;5108674;28;20691;-88
2022/04/23 01:37:55;;;;;;;18.67;12.40;;;15.70;47.00;;;;;;5092023;28;20534;-87
2022/04/23 01:40:25;;;;;;;17.20;11.93;;;15.70;47.10;;;;;;5085638;28;20443;-87
2022/04/23 01:42:54;;;;;;;16.57;11.00;;;15.70;46.90;;;;;;5101167;28;20458;-87
2022/04/23 01:45:22;;;;;;;17.10;12.03;;;15.70;46.90;;;;;;5084129;28;20457;-87
2022/04/23 01:47:51;;;;;;;16.73;11.27;;;15.70;46.50;;;;;;5084308;28;20439;-86
2022/04/23 01:50:19;;;;;;;14.23;11.30;;;15.70;46.60;;;;;;5093347;28;20446;-86
2022/04/23 01:52:48;;;;;;;17.37;12.00;;;15.70;46.50;;;;;;5091491;28;20467;-87
2022/04/23 01:55:18;;;;;;;16.53;10.83;;;15.60;46.20;;;;;;5075479;28;20440;-87
2022/04/23 01:57:48;;;;;;;17.73;11.60;;;15.60;46.30;;;;;;5094620;28;20451;-87
2022/04/23 02:00:17;;;;;;;16.40;11.73;;;15.50;46.50;;;;;;5079131;28;20454;-86
2022/04/23 02:02:47;;;;;;;18.13;12.10;;;15.50;46.70;;;;;;5089159;28;20479;-87
2022/04/23 02:05:15;;;;;;;16.53;10.40;;;15.40;46.90;;;;;;5089196;28;20566;-87
2022/04/23 02:07:44;;;;;;;15.90;11.60;;;15.40;47.00;;;;;;5074383;28;20521;-87
2022/04/23 02:10:14;;;;;;;15.53;11.63;;;15.40;47.10;;;;;;5094899;27;20478;-87
2022/04/23 02:12:45;;;;;;;15.90;11.90;;;15.40;47.10;;;;;;5099375;27;20454;-87
2022/04/23 02:15:15;;;;;;;16.60;11.63;;;15.40;47.50;;;;;;5076837;28;20439;-87
2022/04/23 02:17:47;;;;;;;15.87;11.20;;;15.40;47.90;;;;;;5111322;27;20485;-87
2022/04/23 02:20:17;;;;;;;20.40;11.83;;;15.40;47.60;;;;;;5078521;27;20705;-87
2022/04/23 02:22:47;;;;;;;16.37;11.27;;;15.40;47.40;;;;;;5069846;27;20446;-87
2022/04/23 02:25:16;;;;;;;15.50;10.50;;;15.50;47.30;;;;;;5080428;27;20431;-87
2022/04/23 02:27:48;;;;;;;14.03;10.20;;;15.50;47.20;;;;;;5063025;27;20585;-87
2022/04/23 02:30:18;;;;;;;13.17;9.93;;;15.50;46.90;;;;;;5087949;27;21266;-86
2022/04/23 02:32:47;;;;;;;14.17;10.70;;;15.50;47.30;;;;;;5092432;27;20990;-87
2022/04/23 02:35:16;;;;;;;16.27;11.13;;;15.50;47.30;;;;;;5095521;27;20444;-87
2022/04/23 02:37:45;;;;;;;16.50;11.10;;;15.50;47.50;;;;;;5069948;27;20486;-87
2022/04/23 02:40:14;;;;;;;14.83;10.47;;;15.50;47.60;;;;;;5092488;27;20447;-84
2022/04/23 02:42:44;;;;;;;14.57;10.27;;;15.50;47.70;;;;;;5069222;27;21071;-87
2022/04/23 02:45:15;;;;;;;17.60;10.90;;;15.50;47.60;;;;;;5080292;27;21067;-87
2022/04/23 02:47:45;;;;;;;17.20;10.80;;;15.50;47.50;;;;;;5104227;27;20454;-87
2022/04/23 02:50:13;;;;;;;13.00;9.80;;;15.50;48.10;;;;;;5077586;27;20999;-88
2022/04/23 02:52:42;;;;;;;12.10;9.27;;;15.50;47.90;;;;;;5094004;27;20518;-87
2022/04/23 02:55:11;;;;;;;12.70;8.97;;;15.40;48.00;;;;;;5084690;27;20478;-87
2022/04/23 02:57:41;;;;;;;17.30;10.17;;;15.40;47.90;;;;;;5086673;27;20430;-87
2022/04/23 03:00:11;;;;;;;12.20;9.20;;;15.10;48.80;;;;;;5070257;27;20684;-88
2022/04/23 03:02:40;;;;;;;12.07;9.40;;;15.10;49.20;;;;;;5077743;27;20461;-87
2022/04/23 03:05:11;;;;;;;13.67;9.90;;;15.20;49.70;;;;;;5103774;27;20449;-87
2022/04/23 03:07:40;;;;;;;11.30;8.70;;;15.10;49.40;;;;;;5075390;27;20443;-87
2022/04/23 03:10:11;;;;;;;13.60;9.77;;;15.20;49.20;;;;;;5078745;27;20446;-87
2022/04/23 03:12:39;;;;;;;11.90;8.80;;;15.20;49.70;;;;;;5080907;27;20504;-87
2022/04/23 03:15:10;;;;;;;12.53;8.30;;;15.40;49.30;;;;;;5086806;27;20447;-87
2022/04/23 03:17:41;;;;;;;8.70;7.00;;;15.30;49.00;;;;;;5112832;27;20433;-87
2022/04/23 03:20:12;;;;;;;12.10;8.00;;;15.40;49.00;;;;;;5111159;27;20434;-86
2022/04/23 03:22:42;;;;;;;12.57;8.37;;;15.20;48.90;;;;;;5079901;27;20461;-87
2022/04/23 03:25:11;;;;;;;10.07;7.30;;;14.80;49.90;;;;;;5095789;27;20476;-87
2022/04/23 03:27:40;;;;;;;10.30;7.87;;;14.70;50.40;;;;;;5087873;27;20462;-87
2022/04/23 03:30:09;;;;;;;11.10;8.63;;;14.50;50.80;;;;;;5095192;27;20442;-87
2022/04/23 03:32:36;;;;;;;10.87;8.63;;;14.80;50.30;;;;;;5085659;27;20455;-86
2022/04/23 03:35:06;;;;;;;10.87;8.07;;;14.90;50.00;;;;;;5078702;27;20445;-86
2022/04/23 03:37:38;;;;;;;8.53;7.03;;;14.80;50.10;;;;;;5087539;27;21193;-88
2022/04/23 03:40:07;;;;;;;9.13;7.90;;;14.90;50.40;;;;;;5087017;27;20449;-87
2022/04/23 03:42:36;;;;;;;9.73;7.93;;;15.00;49.90;;;;;;5077394;27;21070;-87
2022/04/23 03:45:05;;;;;;;8.80;7.77;;;15.00;49.60;;;;;;5084470;27;20446;-87
2022/04/23 03:47:33;;;;;;;10.87;7.60;;;14.90;50.10;;;;;;5093581;27;20503;-87
2022/04/23 03:50:06;;;;;;;9.43;7.03;;;14.90;50.20;;;;;;5064252;27;20495;-87
2022/04/23 03:52:34;;;;;;;11.60;8.33;;;14.90;50.10;;;;;;5094854;27;20471;-88
2022/04/23 03:55:02;;;;;;;8.97;7.07;;;14.70;50.40;;;;;;5111653;27;20953;-89
2022/04/23 03:57:30;;;;;;;10.30;8.10;;;14.70;50.70;;;;;;5086326;27;20443;-87
2022/04/23 04:00:03;;;;;;;9.93;6.50;;;14.90;50.60;;;;;;5084710;27;20457;-88
2022/04/23 04:02:32;;;;;;;9.20;6.57;;;15.00;50.10;;;;;;5109275;27;20876;-88
2022/04/23 04:05:01;;;;;;;7.77;6.23;;;15.10;50.10;;;;;;5079254;27;21143;-87
2022/04/23 04:07:31;;;;;;;9.20;7.00;;;15.00;49.90;;;;;;5079801;27;20453;-87
2022/04/23 04:10:02;;;;;;;9.90;6.60;;;15.00;49.80;;;;;;5078663;27;20506;-87
2022/04/23 04:12:30;;;;;;;12.57;8.73;;;15.10;49.80;;;;;;5090496;27;20459;-88
2022/04/23 04:14:58;;;;;;;9.33;7.30;;;15.00;50.10;;;;;;5096103;28;20468;-87
2022/04/23 04:17:30;;;;;;;8.70;6.73;;;15.00;49.80;;;;;;5077947;27;20467;-86
2022/04/23 04:20:00;;;;;;;9.13;6.93;;;15.10;49.90;;;;;;5092310;27;20456;-88
2022/04/23 04:22:31;;;;;;;9.57;7.27;;;15.10;49.70;;;;;;5083897;27;20633;-87
2022/04/23 04:25:01;;;;;;;8.90;6.97;;;15.00;49.90;;;;;;5094273;27;20465;-87
2022/04/23 04:27:30;;;;;;;9.57;7.63;;;15.20;49.80;;;;;;5092637;27;20558;-87
2022/04/23 04:29:57;;;;;;;9.60;7.87;;;15.10;49.60;;;;;;5077153;27;20474;-87
2022/04/23 04:32:26;;;;;;;10.37;7.37;;;14.90;50.10;;;;;;5114709;27;20455;-88
2022/04/23 04:34:56;;;;;;;16.07;10.13;;;15.00;50.20;;;;;;5076603;28;20447;-87
2022/04/23 04:37:24;;;;;;;13.47;8.90;;;15.20;49.90;;;;;;5091622;27;20447;-88
2022/04/23 04:39:53;;;;;;;10.23;7.27;;;15.30;49.50;;;;;;5060965;27;20448;-87
2022/04/23 04:42:21;;;;;;;9.40;6.87;;;15.20;49.80;;;;;;5079478;28;20493;-87
2022/04/23 04:44:49;;;;;;;12.17;6.93;;;15.40;49.50;;;;;;5110142;27;20443;-87
2022/04/23 04:47:18;;;;;;;9.17;7.23;;;15.50;49.50;;;;;;5092622;28;20508;-86
2022/04/23 04:49:47;;;;;;;8.90;5.93;;;15.60;49.10;;;;;;5086072;28;20602;-87
2022/04/23 04:52:15;;;;;;;10.47;7.80;;;15.30;49.10;;;;;;5083358;28;20478;-87
2022/04/23 04:54:43;;;;;;;11.00;7.83;;;15.10;49.80;;;;;;5067518;28;21004;-86
2022/04/23 04:57:12;;;;;;;11.03;7.80;;;15.10;49.70;;;;;;5095113;28;20437;-86
2022/04/23 04:59:41;;;;;;;10.07;7.70;;;14.90;50.10;;;;;;5082901;27;20519;-87
2022/04/23 05:02:09;;;;;;;8.60;7.47;;;15.00;50.20;;;;;;5089771;27;20527;-87
2022/04/23 05:04:38;;;;;;;9.00;7.47;;;15.00;49.90;;;;;;5073448;28;20739;-87
2022/04/23 05:07:06;;;;;;;7.90;7.00;;;15.20;49.70;;;;;;5091739;28;20536;-87
2022/04/23 05:09:35;;;;;;;10.90;7.43;;;15.40;49.40;;;;;;5067705;28;21291;-87
2022/04/23 05:12:02;;;;;;;10.30;7.13;;;15.10;49.40;;;;;;5078138;28;20558;-87
2022/04/23 05:14:31;;;;;;;10.10;7.03;;;15.10;49.60;;;;;;5077236;28;20454;-88
2022/04/23 05:16:59;;;;;;;7.47;6.67;;;15.10;49.60;;;;;;5096206;28;20680;-87
2022/04/23 05:19:27;;;;;;;10.23;6.83;;;15.20;49.40;;;;;;5066910;28;20463;-87
2022/04/23 05:21:57;;;;;;;8.00;6.13;;;15.30;48.90;;;;;;5090145;28;20483;-88
2022/04/23 05:24:26;;;;;;;9.83;6.57;;;15.20;49.70;;;;;;5065575;28;20538;-87
2022/04/23 05:26:55;;;;;;;12.00;7.93;;;15.30;49.70;;;;;;5073133;28;20493;-86
2022/04/23 05:29:23;;;;;;;9.73;7.37;;;15.40;49.50;;;;;;5067767;28;21006;-87
2022/04/23 05:31:54;;;;;;;12.23;7.33;;;15.20;49.40;;;;;;5091746;28;20561;-87
2022/04/23 05:34:24;;;;;;;10.17;6.50;;;15.10;49.60;;;;;;5089819;28;20451;-88
2022/04/23 05:36:52;;;;;;;10.40;6.77;;;15.10;49.50;;;;;;5091388;28;20446;-86
2022/04/23 05:39:20;;;;;;;9.07;7.00;;;15.20;49.40;;;;;;5076262;28;20496;-85
2022/04/23 05:41:48;;;;;;;10.13;6.73;;;15.00;49.70;;;;;;5073486;28;20569;-87
2022/04/23 05:44:16;;;;;;;7.73;6.30;;;15.00;49.60;;;;;;5086057;27;20961;-87
2022/04/23 05:46:44;;;;;;;9.13;7.07;;;15.00;49.90;;;;;;5072948;27;20988;-87
2022/04/23 05:49:13;;;;;;;11.43;7.90;;;15.00;49.80;;;;;;5078343;27;20530;-88
2022/04/23 05:51:41;;;;;;;10.10;7.50;;;15.10;49.80;;;;;;5062915;27;20469;-87
2022/04/23 05:54:09;;;;;;;12.83;9.90;;;15.20;49.40;;;;;;5079512;27;21149;-86
2022/04/23 05:56:37;;;;;;;12.53;8.40;;;15.40;49.10;;;;;;5095984;27;20539;-88
2022/04/23 05:59:06;;;;;;;11.27;8.17;;;15.50;49.10;;;;;;5069617;27;20502;-88
2022/04/23 06:01:34;;;;;;;16.07;9.53;;;15.70;48.80;;;;;;5080440;27;20485;-88
2022/04/23 06:04:01;;;;;;;12.47;9.13;;;15.70;48.60;;;;;;5098443;27;20450;-88
2022/04/23 06:06:31;;;;;;;13.40;8.87;;;15.90;48.70;;;;;;5091406;27;20451;-87
2022/04/23 06:09:00;;;;;;;18.30;9.57;;;16.10;48.30;;;;;;5083855;27;20489;-88
2022/04/23 06:11:27;;;;;;;13.40;9.20;;;15.90;48.20;;;;;;5074092;27;20466;-87
2022/04/23 06:13:56;;;;;;;13.37;9.50;;;16.00;48.40;;;;;;5068798;27;20454;-87
2022/04/23 06:16:24;;;;;;;12.30;8.47;;;15.90;47.80;;;;;;5117873;27;20559;-88
2022/04/23 06:18:52;;;;;;;12.23;9.00;;;15.70;48.40;;;;;;5100048;27;20805;-88
2022/04/23 06:21:21;;;;;;;15.27;9.23;;;15.60;48.60;;;;;;5120988;27;21048;-88
2022/04/23 06:23:50;;;;;;;12.80;9.07;;;15.70;49.00;;;;;;5067645;27;20464;-88
2022/04/23 06:26:19;;;;;;;14.90;10.20;;;15.70;49.00;;;;;;5094754;27;20442;-84
2022/04/23 06:28:47;;;;;;;16.20;10.60;;;15.80;48.60;;;;;;5067608;27;20442;-88
2022/04/23 06:31:15;;;;;;;14.70;10.20;;;15.40;49.20;;;;;;5069033;27;20465;-87
2022/04/23 06:33:44;;;;;;;16.37;10.27;;;15.60;49.30;;;;;;5114383;27;20443;-90
2022/04/23 06:36:13;;;;;;;15.10;9.93;;;15.60;48.90;;;;;;5086326;27;20862;-88
2022/04/23 06:38:41;;;;;;;16.50;10.90;;;15.50;49.30;;;;;;5071100;27;20451;-88
2022/04/23 06:41:10;;;;;;;14.70;9.63;;;15.50;49.00;;;;;;5113919;27;20458;-89
2022/04/23 06:43:39;;;;;;;13.07;10.10;;;15.70;48.90;;;;;;5097187;27;21200;-89
2022/04/23 06:46:07;;;;;;;15.60;11.27;;;15.80;48.50;;;;;;5094149;27;20900;-86
2022/04/23 06:48:34;;;;;;;15.13;10.43;;;15.80;48.70;;;;;;5095435;27;20431;-89
2022/04/23 06:51:03;;;;;;;15.60;10.13;;;15.60;48.90;;;;;;5070258;27;21018;-87
2022/04/23 06:53:31;;;;;;;14.37;9.23;;;15.40;49.20;;;;;;5094503;27;20542;-87
2022/04/23 06:56:03;;;;;;;16.63;10.97;;;15.30;49.50;;;;;;5086815;27;20520;-88
2022/04/23 06:58:32;;;;;;;15.10;11.60;;;15.40;49.60;;;;;;5081336;27;20434;-88
2022/04/23 07:01:00;;;;;;;15.50;11.27;;;15.40;49.60;;;;;;5083740;27;20454;-87
2022/04/23 07:03:27;;;;;;;14.87;10.47;;;15.50;49.40;;;;;;5067795;27;20965;-84
2022/04/23 07:05:56;;;;;;;14.63;10.80;;;15.30;49.30;;;;;;5076502;27;21113;-87
2022/04/23 07:08:24;;;;;;;16.80;11.57;;;15.40;50.10;;;;;;5076401;27;20577;-86
2022/04/23 07:10:53;;;;;;;16.77;10.30;;;15.80;49.70;;;;;;5095760;27;20497;-85
2022/04/23 07:13:25;;;;;;;18.67;10.70;;;16.10;48.80;;;;;;5096200;27;20442;-88
2022/04/23 07:15:55;;;;;;;18.50;11.00;;;16.10;48.00;;;;;;5095947;27;20983;-88
2022/04/23 07:18:22;;;;;;;27.10;13.60;;;16.10;48.30;;;;;;5094511;27;20690;-89
2022/04/23 07:20:53;;;;;;;65.10;22.10;;;16.00;48.60;;;;;;5069498;27;21008;-88
2022/04/23 07:26:09;;;;;;;21.00;12.03;;;16.10;49.00;;;;;;5068126;27;20434;-89
2022/04/23 07:28:38;;;;;;;27.80;14.17;;;16.30;47.60;;;;;;5064728;27;22200;-88
2022/04/23 07:31:07;;;;;;;17.70;11.07;;;16.50;47.30;;;;;;5091912;27;20946;-88
2022/04/23 07:39:08;;;;;;;11.73;7.97;;;16.60;47.10;;;;;;5082336;27;20445;-88
2022/04/23 07:41:36;;;;;;;14.27;9.43;;;16.50;47.40;;;;;;5077693;27;20523;-88
2022/04/23 07:44:04;;;;;;;14.80;9.10;;;16.50;47.60;;;;;;5062715;27;20441;-89
2022/04/23 07:46:33;;;;;;;18.00;11.37;;;16.60;47.40;;;;;;5078736;27;20446;-89
2022/04/23 07:49:03;;;;;;;16.43;10.20;;;16.80;47.20;;;;;;5104409;27;20530;-89
2022/04/23 07:51:31;;;;;;;18.80;11.23;;;16.70;46.90;;;;;;5063804;27;20520;-87
2022/04/23 07:54:00;;;;;;;16.27;11.37;;;16.80;46.90;;;;;;5074215;27;20442;-89
2022/04/23 07:56:29;;;;;;;14.87;11.10;;;17.00;47.10;;;;;;5062446;27;20442;-87
2022/04/23 07:58:57;;;;;;;18.23;11.30;;;17.00;47.00;;;;;;5077327;27;20973;-88
2022/04/23 08:01:25;;;;;;;25.10;12.67;;;17.20;46.60;;;;;;5070203;27;20470;-88
2022/04/23 08:03:54;;;;;;;16.87;11.37;;;17.30;46.30;;;;;;5063710;27;21015;-87
2022/04/23 08:06:23;;;;;;;34.70;17.10;;;17.30;46.50;;;;;;5082155;27;20442;-87
2022/04/23 08:08:51;;;;;;;19.50;12.70;;;17.20;46.50;;;;;;5074332;27;20547;-86
2022/04/23 08:11:19;;;;;;;18.23;10.83;;;17.40;46.30;;;;;;5074524;27;20639;-87
2022/04/23 08:13:47;;;;;;;20.47;12.40;;;17.40;45.90;;;;;;5081893;27;21005;-87
2022/04/23 08:16:15;;;;;;;20.17;11.90;;;17.40;45.50;;;;;;5075924;27;20821;-87
2022/04/23 08:18:43;;;;;;;19.60;13.40;;;17.50;45.80;;;;;;5091398;27;20473;-86
2022/04/23 08:21:12;;;;;;;17.33;13.00;;;17.60;45.60;;;;;;5079900;27;20466;-87
2022/04/23 08:23:40;;;;;;;25.30;13.50;;;17.20;46.40;;;;;;5070844;28;20470;-87
2022/04/23 08:26:08;;;;;;;15.60;11.07;;;17.40;46.80;;;;;;5072578;27;20515;-88
2022/04/23 08:31:22;;;;;;;16.50;11.67;;;17.60;45.80;;;;;;5088891;27;20462;-87
2022/04/23 08:33:59;;;;;;;21.63;15.00;;;17.70;45.60;;;;;;5089328;27;21082;-87
2022/04/23 08:36:35;;;;;;;17.30;12.07;;;17.60;45.50;;;;;;5093690;27;20446;-88
2022/04/23 08:39:04;;;;;;;24.53;16.87;;;17.50;45.50;;;;;;5077332;27;20533;-87
2022/04/23 08:41:33;;;;;;;19.23;13.87;;;17.60;45.60;;;;;;5088781;27;20579;-88
2022/04/23 08:44:06;;;;;;;20.33;12.50;;;17.50;46.10;;;;;;5089438;27;20527;-87
2022/04/23 08:46:36;;;;;;;34.33;19.77;;;17.60;46.20;;;;;;5090409;27;20530;-88
2022/04/23 08:49:13;;;;;;;22.53;15.80;;;17.70;45.70;;;;;;5088936;27;20438;-87
2022/04/23 08:51:48;;;;;;;23.83;15.63;;;17.80;45.60;;;;;;5086845;28;20509;-89
2022/04/23 08:54:17;;;;;;;28.40;17.27;;;17.90;45.40;;;;;;5078885;27;21037;-87
2022/04/23 08:56:46;;;;;;;24.23;16.80;;;18.00;45.20;;;;;;5071543;28;20439;-86
2022/04/23 08:59:14;;;;;;;20.07;12.47;;;18.10;45.50;;;;;;5081221;27;20541;-86
2022/04/23 09:01:44;;;;;;;18.10;13.60;;;17.90;45.60;;;;;;5079232;27;20450;-86
2022/04/23 09:04:13;;;;;;;16.53;11.53;;;18.10;45.30;;;;;;5089482;28;21173;-85
2022/04/23 09:06:45;;;;;;;20.10;15.27;;;18.30;45.40;;;;;;5088436;28;20471;-85
2022/04/23 09:09:15;;;;;;;17.57;12.57;;;18.30;45.30;;;;;;5088672;28;21365;-86
2022/04/23 09:11:44;;;;;;;18.10;13.07;;;18.00;45.00;;;;;;5074137;28;20477;-86
2022/04/23 09:14:25;;;;;;;20.00;13.37;;;18.00;45.60;;;;;;5097295;28;20445;-85
2022/04/23 09:25:44;;;;;;;22.43;14.17;;;18.20;45.30;;;;;;5092409;27;20450;-84
2022/04/23 09:28:17;;;;;;;26.13;19.50;;;18.50;45.80;;;;;;5074944;27;20807;-85
2022/04/23 09:30:45;;;;;;;16.37;12.20;;;18.60;44.30;;;;;;5076944;27;21020;-87
2022/04/23 09:33:13;;;;;;;16.23;12.43;;;18.70;44.70;;;;;;5093797;27;20438;-85
2022/04/23 09:35:54;;;;;;;20.00;11.73;;;18.90;44.10;;;;;;5084046;27;20446;-86
2022/04/23 09:38:23;;;;;;;14.30;10.80;;;19.10;44.20;;;;;;5064346;27;20443;-88
2022/04/23 09:40:53;;;;;;;18.93;12.10;;;19.10;43.20;;;;;;5070688;27;20474;-85
2022/04/23 09:43:29;;;;;;;16.83;11.33;;;18.90;44.40;;;;;;5090070;27;20458;-88
2022/04/23 09:46:02;;;;;;;16.20;11.00;;;19.00;43.90;;;;;;5078463;27;20445;-87
2022/04/23 09:48:30;;;;;;;15.83;10.07;;;18.70;43.10;;;;;;5093853;27;20438;-86
2022/04/23 09:50:59;;;;;;;18.20;11.13;;;18.30;44.30;;;;;;5093023;27;20472;-86
2022/04/23 09:53:28;;;;;;;14.07;10.40;;;18.60;44.60;;;;;;5077791;27;20479;-86
2022/04/23 09:56:00;;;;;;;15.97;11.77;;;18.80;43.80;;;;;;5076548;27;20444;-87
2022/04/23 09:58:29;;;;;;;20.27;12.67;;;18.80;44.00;;;;;;5097412;27;21140;-86
2022/04/23 10:00:59;;;;;;;19.67;13.17;;;19.00;44.00;;;;;;5094294;27;20474;-84
2022/04/23 10:03:30;;;;;;;26.50;13.17;;;18.90;43.80;;;;;;5094274;27;21142;-84
2022/04/23 10:05:59;;;;;;;22.77;14.17;;;18.80;43.90;;;;;;5060372;27;20450;-84
2022/04/23 10:08:29;;;;;;;19.80;12.57;;;18.60;44.30;;;;;;5093849;28;20442;-84
2022/04/23 10:11:01;;;;;;;18.40;12.73;;;18.70;44.10;;;;;;5094296;27;20528;-87
2022/04/23 10:13:31;;;;;;;19.57;12.60;;;18.80;45.10;;;;;;5092760;27;20449;-86
2022/04/23 10:15:59;;;;;;;20.70;12.80;;;18.80;44.50;;;;;;5095673;27;20478;-86
2022/04/23 10:18:27;;;;;;;50.00;25.13;;;18.50;44.60;;;;;;5095577;27;21183;-85
2022/04/23 10:20:58;;;;;;;45.73;24.73;;;18.70;44.60;;;;;;5076558;27;20458;-88
2022/04/23 10:23:44;;;;;;;32.00;19.50;;;18.70;44.40;;;;;;5085405;27;20458;-86
2022/04/23 10:26:34;;;;;;;21.60;14.93;;;18.70;44.40;;;;;;5093043;27;20841;-86
2022/04/23 10:29:07;;;;;;;21.33;15.33;;;18.50;44.70;;;;;;5101766;27;20490;-86
2022/04/23 10:31:35;;;;;;;25.77;14.47;;;18.20;44.80;;;;;;5062414;27;20454;-86
2022/04/23 10:34:03;;;;;;;22.40;15.37;;;18.10;44.80;;;;;;5095270;27;20968;-87
2022/04/23 10:36:31;;;;;;;20.23;13.70;;;18.10;44.80;;;;;;5082078;27;20449;-87
2022/04/23 10:39:20;;;;;;;23.30;17.23;;;18.10;45.60;;;;;;5063888;27;20454;-85
2022/04/23 10:41:51;;;;;;;22.20;14.80;;;18.00;45.40;;;;;;5085578;27;20461;-87
2022/04/23 10:44:23;;;;;;;23.50;15.00;;;18.00;44.90;;;;;;5085593;27;20461;-88
2022/04/23 10:46:56;;;;;;;22.13;13.47;;;18.00;45.00;;;;;;5093171;27;20446;-86
2022/04/23 10:49:26;;;;;;;23.17;13.00;;;17.90;45.40;;;;;;5090315;27;20446;-86
2022/04/23 10:51:55;;;;;;;27.10;14.00;;;18.20;45.50;;;;;;5077256;27;20458;-86
2022/04/23 10:54:55;;;;;;;22.40;14.77;;;18.30;45.20;;;;;;5111527;27;20820;-86
2022/04/23 10:57:24;;;;;;;21.80;14.50;;;18.40;44.60;;;;;;5096393;27;20447;-86
2022/04/23 10:59:53;;;;;;;25.23;15.77;;;18.60;44.80;;;;;;5077070;27;20466;-85
2022/04/23 11:02:33;;;;;;;23.07;14.77;;;18.60;44.00;;;;;;5095205;27;20469;-86
2022/04/23 11:13:32;;;;;;;21.27;14.80;;;18.00;45.10;;;;;;5095974;27;20487;-86
2022/04/23 11:16:08;;;;;;;20.30;13.97;;;17.90;45.50;;;;;;5091844;27;21088;-86
2022/04/23 11:18:37;;;;;;;26.83;14.63;;;17.90;45.00;;;;;;5084727;27;21004;-87
2022/04/23 11:21:18;;;;;;;29.40;17.30;;;18.10;45.30;;;;;;5066610;27;21001;-90
2022/04/23 11:23:47;;;;;;;23.63;15.23;;;18.10;44.40;;;;;;5093751;27;20473;-87
2022/04/23 11:26:18;;;;;;;24.53;14.67;;;17.70;44.70;;;;;;5091884;27;20455;-84
2022/04/23 11:28:47;;;;;;;22.67;13.53;;;17.50;45.50;;;;;;5092741;28;20823;-87
2022/04/23 11:31:17;;;;;;;34.20;15.43;;;17.40;45.70;;;;;;5082984;27;20493;-85
2022/04/23 11:33:53;;;;;;;23.20;14.10;;;17.50;46.00;;;;;;5112177;27;20515;-86
2022/04/23 11:36:27;;;;;;;21.80;13.53;;;17.50;45.50;;;;;;5092171;27;20441;-87
2022/04/23 11:38:55;;;;;;;20.90;14.60;;;17.60;45.30;;;;;;5075518;27;20539;-87
2022/04/23 11:41:32;;;;;;;24.90;14.13;;;17.60;45.30;;;;;;5066396;28;20537;-88
2022/04/23 11:44:13;;;;;;;22.07;13.33;;;17.70;45.20;;;;;;5109081;27;20476;-87
2022/04/23 11:46:42;;;;;;;20.90;13.60;;;18.10;45.00;;;;;;5085321;27;21240;-85
2022/04/23 11:49:11;;;;;;;24.60;13.57;;;18.30;44.50;;;;;;5075267;27;20466;-87
2022/04/23 11:51:41;;;;;;;21.90;14.27;;;18.50;44.20;;;;;;5092460;27;20550;-86
2022/04/23 11:54:09;;;;;;;22.97;14.13;;;18.60;43.30;;;;;;5091561;27;20451;-85
2022/04/23 11:56:39;;;;;;;22.43;13.80;;;18.70;43.20;;;;;;5094103;27;20435;-84
2022/04/23 11:59:09;;;;;;;26.23;14.80;;;18.90;43.30;;;;;;5084593;27;20443;-86
2022/04/23 12:01:38;;;;;;;28.67;16.07;;;19.00;42.80;;;;;;5073867;27;20474;-87
2022/04/23 12:04:06;;;;;;;39.73;15.17;;;18.90;42.60;;;;;;5084794;27;20466;-87
2022/04/23 12:06:45;;;;;;;21.70;13.10;;;19.00;42.70;;;;;;5079138;27;20447;-86
2022/04/23 12:09:14;;;;;;;26.43;14.87;;;19.00;41.80;;;;;;5093908;27;20449;-85
2022/04/23 12:11:43;;;;;;;22.77;14.80;;;19.00;42.50;;;;;;5080053;27;21085;-86
2022/04/23 12:14:12;;;;;;;20.50;13.60;;;18.60;42.70;;;;;;5093859;27;20442;-85
2022/04/23 12:16:42;;;;;;;26.20;16.43;;;18.70;43.60;;;;;;5084565;27;20647;-87
2022/04/23 12:19:12;;;;;;;22.50;13.03;;;18.90;43.70;;;;;;5078080;27;20491;-86
2022/04/23 12:21:56;;;;;;;19.83;11.97;;;18.90;42.30;;;;;;5096720;27;20477;-86
2022/04/23 12:24:31;;;;;;;18.77;12.53;;;18.90;42.80;;;;;;5076552;27;20463;-85
2022/04/23 12:27:05;;;;;;;21.37;13.40;;;18.80;42.70;;;;;;5097037;27;20438;-86
2022/04/23 12:40:46;;;;;;;94.73;40.37;;;18.90;43.00;;;;;;5082504;27;20522;-86
2022/04/23 12:43:32;;;;;;;53.47;31.43;;;18.80;42.10;;;;;;5075102;27;20438;-87
2022/04/23 12:46:09;;;;;;;22.23;13.97;;;18.90;42.00;;;;;;5088643;27;20457;-86
2022/04/23 12:48:56;;;;;;;15.80;11.40;;;18.80;42.30;;;;;;5077246;27;20438;-87
2022/04/23 12:51:25;;;;;;;15.83;10.10;;;18.50;42.40;;;;;;5089549;27;20513;-90
2022/04/23 12:53:52;;;;;;;16.40;12.03;;;18.40;42.30;;;;;;5062610;28;20447;-90
2022/04/23 12:56:33;;;;;;;18.90;14.10;;;18.50;42.00;;;;;;5098637;27;20668;-89
2022/04/23 12:59:03;;;;;;;19.30;15.50;;;18.70;42.60;;;;;;5070496;27;20450;-85
2022/04/23 13:01:34;;;;;;;18.40;15.43;;;18.60;42.40;;;;;;5088885;27;20915;-86
2022/04/23 13:04:03;;;;;;;16.73;13.03;;;18.70;42.20;;;;;;5080847;28;20501;-88
2022/04/23 13:09:17;;;;;;;15.50;11.33;;;18.70;41.90;;;;;;5092037;28;20442;-86
2022/04/23 13:11:45;;;;;;;13.47;9.70;;;18.70;42.40;;;;;;5106028;28;20495;-88
2022/04/23 13:14:14;;;;;;;16.13;9.90;;;18.80;41.70;;;;;;5057471;28;20467;-87
2022/04/23 13:16:44;;;;;;;9.37;7.17;;;18.80;41.40;;;;;;5082913;28;21029;-88
2022/04/23 13:19:12;;;;;;;24.50;11.60;;;18.80;41.10;;;;;;5091428;28;20439;-89
2022/04/23 13:21:40;;;;;;;15.27;9.63;;;18.60;41.70;;;;;;5079217;28;20787;-90
2022/04/23 13:24:09;;;;;;;12.60;9.27;;;18.50;41.50;;;;;;5089239;28;21013;-86
2022/04/23 13:26:37;;;;;;;16.00;10.50;;;18.50;41.70;;;;;;5086265;28;20835;-87